Time;durP1;ratioP1;P1;durP2;ratioP2;P2;SDS_P1;SDS_P2;PMS_P1;PMS_P2;Temp;Humidity;BMP_temperature;BMP_pressure;BME280_temperature;BME280_humidity;BME280_pressure;Samples;Min_cycle;Max_cycle;Signal;HPM_P1;HPM_P2
2022/01/27 00:05:26;;;;;;;32.78;16.15;;;;;;;4.63;55.65;100264.28;5091933;28;20050;-48
2022/01/27 00:08:08;;;;;;;;;;;;;;;4.39;56.21;100249.72;5091899;28;20043;-49
2022/01/27 00:13:11;;;;;;;31.45;16.60;;;;;;;4.31;56.67;100252.09;5092245;28;20543;-49
2022/01/27 00:15:38;;;;;;;33.40;17.08;;;;;;;4.32;56.59;100246.75;5091946;28;20032;-49
2022/01/27 00:18:12;;;;;;;30.13;14.98;;;;;;;4.55;56.49;100250.13;5091827;28;20024;-50
2022/01/27 00:20:37;;;;;;;29.88;14.50;;;;;;;4.54;55.63;100253.66;5091887;28;20074;-48
2022/01/27 00:23:03;;;;;;;30.02;15.48;;;;;;;4.34;55.56;100244.84;5090473;28;20023;-47
2022/01/27 00:25:29;;;;;;;28.23;14.63;;;;;;;4.28;55.99;100237.56;5090449;28;20103;-48
2022/01/27 00:27:55;;;;;;;36.42;16.23;;;;;;;4.38;56.23;100235.06;5090452;28;20047;-48
2022/01/27 00:30:21;;;;;;;30.70;17.65;;;;;;;4.46;56.25;100232.66;5090461;28;20024;-49
2022/01/27 00:32:47;;;;;;;227.52;184.98;;;;;;;4.42;56.26;100231.25;5090414;28;20054;-48
2022/01/27 00:35:13;;;;;;;107.97;81.15;;;;;;;4.20;56.99;100238.19;5094194;28;20024;-49
2022/01/27 00:37:39;;;;;;;76.55;57.85;;;;;;;4.25;57.98;100247.38;5094479;28;20085;-48
2022/01/27 00:40:11;;;;;;;36.05;20.77;;;;;;;4.33;57.54;100242.41;5094249;28;20105;-48
2022/01/27 00:42:39;;;;;;;26.95;16.63;;;;;;;4.23;56.97;100244.91;5095818;28;20557;-48
2022/01/27 00:45:05;;;;;;;29.00;17.85;;;;;;;3.99;57.81;100250.25;5094256;28;20060;-48
2022/01/27 00:47:31;;;;;;;28.60;15.75;;;;;;;3.79;57.49;100247.41;5095679;28;20042;-48
2022/01/27 00:49:57;;;;;;;27.08;16.42;;;;;;;3.55;57.90;100244.91;5094257;28;20028;-48
2022/01/27 00:52:36;;;;;;;31.85;18.13;;;;;;;3.38;59.44;100250.53;5094240;28;20047;-48
2022/01/27 00:55:03;;;;;;;43.88;28.50;;;;;;;3.51;59.21;100248.69;5095513;28;20028;-47
2022/01/27 01:00:09;;;;;;;30.67;15.93;;;;;;;3.37;59.72;100249.72;5095413;28;20107;-49
2022/01/27 01:07:45;;;;;;;27.65;16.52;;;;;;;3.59;59.44;100224.75;5095272;28;20024;-50
2022/01/27 01:11:14;;;;;;;27.00;14.55;;;;;;;3.84;59.03;100234.06;5093852;28;20490;-49
2022/01/27 01:15:36;;;;;;;26.60;14.98;;;;;;;4.01;58.16;100219.78;5095110;28;20028;-49
2022/01/27 01:20:58;;;;;;;32.65;18.48;;;;;;;4.21;57.54;100210.41;5095059;28;20036;-48
2022/01/27 01:34:19;;;;;;;25.52;15.45;;;;;;;3.87;57.09;100212.25;5095090;28;20038;-48
2022/01/27 01:36:58;;;;;;;23.67;13.15;;;;;;;3.83;57.17;100206.44;5093721;28;20501;-49
2022/01/27 01:39:33;;;;;;;36.25;16.33;;;;;;;3.88;57.44;100206.09;5093160;28;20048;-47
2022/01/27 01:42:06;;;;;;;31.52;16.13;;;;;;;3.87;56.75;100210.47;5093371;28;20032;-48
2022/01/27 01:44:33;;;;;;;50.85;37.17;;;;;;;3.79;57.29;100200.66;5093085;28;20070;-49
2022/01/27 01:46:59;;;;;;;32.20;18.02;;;;;;;3.86;57.41;100205.38;5092817;28;20413;-48
2022/01/27 01:49:27;;;;;;;25.08;15.20;;;;;;;3.91;57.21;100211.88;5093168;28;20028;-49
2022/01/27 01:51:57;;;;;;;27.13;14.95;;;;;;;3.88;57.04;100211.28;5093081;28;20023;-49
2022/01/27 01:54:24;;;;;;;27.98;16.30;;;;;;;3.88;57.06;100209.50;5093182;28;20444;-47
2022/01/27 01:56:50;;;;;;;32.88;16.25;;;;;;;3.95;57.23;100207.28;5092968;28;20028;-48
2022/01/27 01:59:17;;;;;;;32.03;15.90;;;;;;;4.06;57.08;100207.22;5093055;28;20027;-48
2022/01/27 02:01:44;;;;;;;28.67;13.45;;;;;;;4.22;56.65;100213.81;5094205;28;20049;-48
2022/01/27 02:04:11;;;;;;;27.13;15.95;;;;;;;4.31;56.28;100203.53;5094125;28;20108;-48
2022/01/27 02:06:45;;;;;;;90.35;70.13;;;;;;;4.34;55.75;100202.47;5094132;28;20126;-48
2022/01/27 02:20:04;;;;;;;29.85;15.02;;;;;;;4.31;55.72;100208.72;5094119;28;20078;-50
2022/01/27 02:22:30;;;;;;;28.60;16.50;;;;;;;4.25;55.94;100208.41;5092528;28;20107;-50
2022/01/27 02:24:56;;;;;;;24.00;15.02;;;;;;;4.18;56.21;100210.66;5092434;28;20450;-49
2022/01/27 02:27:22;;;;;;;27.13;15.90;;;;;;;4.09;56.01;100207.00;5092418;28;20031;-50
2022/01/27 02:29:48;;;;;;;30.38;16.08;;;;;;;3.91;55.95;100213.66;5092347;28;20020;-47
2022/01/27 02:32:16;;;;;;;24.77;15.05;;;;;;;3.74;56.55;100210.59;5092342;28;20020;-47
2022/01/27 02:34:42;;;;;;;35.50;18.15;;;;;;;3.67;56.71;100206.81;5092258;28;20024;-48
2022/01/27 02:37:08;;;;;;;30.80;17.95;;;;;;;3.61;56.95;100207.28;5092215;28;20051;-48
2022/01/27 02:39:35;;;;;;;25.00;15.00;;;;;;;3.45;57.18;100206.81;5093274;28;20040;-48
2022/01/27 02:42:21;;;;;;;27.65;16.15;;;;;;;3.27;57.54;100198.63;5092141;28;20436;-47
2022/01/27 02:44:55;;;;;;;24.33;13.50;;;;;;;3.22;57.94;100196.41;5092092;28;20024;-48
2022/01/27 02:47:25;;;;;;;31.33;15.98;;;;;;;3.09;57.41;100193.06;5092062;28;20035;-48
2022/01/27 02:49:51;;;;;;;33.03;16.73;;;;;;;2.87;58.13;100189.47;5093617;28;20032;-48
2022/01/27 02:52:17;;;;;;;69.95;18.55;;;;;;;2.89;58.62;100195.38;5093250;28;20099;-48
2022/01/27 02:54:43;;;;;;;31.35;16.15;;;;;;;2.89;59.16;100200.56;5091878;28;20119;-48
2022/01/27 02:57:10;;;;;;;27.48;16.75;;;;;;;3.09;59.07;100196.47;5090994;28;20024;-48
2022/01/27 02:59:36;;;;;;;32.70;17.45;;;;;;;3.31;58.60;100194.88;5091896;28;20024;-49
2022/01/27 03:02:02;;;;;;;64.00;46.42;;;;;;;3.34;58.42;100195.47;5091751;28;20111;-48
2022/01/27 03:04:30;;;;;;;34.03;20.27;;;;;;;3.37;58.56;100192.63;5091655;28;20052;-49
2022/01/27 03:06:56;;;;;;;34.17;19.25;;;;;;;3.30;58.01;100190.59;5092970;28;20044;-48
2022/01/27 03:09:22;;;;;;;31.98;17.63;;;;;;;3.17;58.40;100199.31;5091665;28;20059;-47
2022/01/27 03:11:56;;;;;;;34.75;18.58;;;;;;;3.21;58.99;100194.75;5091543;28;20571;-48
2022/01/27 03:14:23;;;;;;;28.40;16.15;;;;;;;3.22;58.00;100198.16;5091594;28;20458;-48
2022/01/27 03:16:54;;;;;;;43.45;19.58;;;;;;;2.96;58.46;100199.16;5091449;28;20027;-48
2022/01/27 03:19:20;;;;;;;38.80;18.67;;;;;;;2.86;58.97;100193.03;5092884;28;20032;-48
2022/01/27 03:21:46;;;;;;;44.45;21.17;;;;;;;2.99;59.32;100198.09;5092656;28;20020;-51
2022/01/27 03:24:12;;;;;;;44.60;23.23;;;;;;;3.13;58.60;100195.31;5091298;28;20039;-47
2022/01/27 03:26:37;;;;;;;35.78;19.58;;;;;;;3.04;58.34;100192.56;5091326;28;20520;-48
2022/01/27 03:29:04;;;;;;;31.25;16.73;;;;;;;3.00;58.68;100189.41;5092574;28;20109;-48
2022/01/27 03:31:30;;;;;;;31.30;17.63;;;;;;;2.98;58.71;100189.50;5091275;28;20502;-47
2022/01/27 03:33:55;;;;;;;34.22;17.48;;;;;;;2.97;58.55;100197.41;5092545;28;20028;-47
2022/01/27 03:36:21;;;;;;;40.03;18.55;;;;;;;2.60;59.09;100185.38;5091115;28;20048;-48
2022/01/27 03:38:47;;;;;;;39.40;19.42;;;;;;;2.60;59.87;100187.16;5091114;28;20020;-48
2022/01/27 03:41:18;;;;;;;43.13;26.98;;;;;;;2.87;59.73;100186.88;5070797;28;20438;-49
2022/01/27 03:43:45;;;;;;;35.40;20.30;;;;;;;3.03;59.25;100188.34;5072179;28;20390;-48
2022/01/27 03:46:11;;;;;;;31.75;17.63;;;;;;;3.16;59.09;100183.91;5070692;28;20028;-49
2022/01/27 03:48:37;;;;;;;36.88;19.40;;;;;;;2.94;59.58;100179.50;5070751;28;20021;-48
2022/01/27 03:51:04;;;;;;;35.75;17.63;;;;;;;2.99;59.97;100179.97;5072018;28;20030;-47
2022/01/27 03:53:30;;;;;;;33.95;18.65;;;;;;;3.30;59.58;100178.50;5070661;28;20028;-48
2022/01/27 03:55:56;;;;;;;41.05;19.17;;;;;;;3.64;58.85;100185.44;5070618;28;20077;-48
2022/01/27 03:58:22;;;;;;;39.88;19.20;;;;;;;3.77;58.21;100179.19;5071993;28;20024;-47
2022/01/27 04:00:47;;;;;;;35.53;18.40;;;;;;;3.88;57.64;100185.31;5070524;28;20564;-47
2022/01/27 04:03:16;;;;;;;30.13;16.35;;;;;;;3.83;57.34;100184.84;5071886;28;20017;-48
2022/01/27 04:05:51;;;;;;;35.70;16.73;;;;;;;3.68;57.55;100185.09;5071685;28;20452;-48
2022/01/27 04:08:18;;;;;;;;;;;;;;;3.56;57.40;100186.88;5072143;28;20510;-47
2022/01/27 04:10:44;;;;;;;37.80;17.73;;;;;;;3.29;57.26;100187.19;5071768;28;19934;-48
2022/01/27 04:13:10;;;;;;;32.55;17.92;;;;;;;3.11;57.66;100183.41;5072027;28;20486;-50
2022/01/27 04:15:39;;;;;;;34.78;17.73;;;;;;;3.04;58.48;100184.78;5071745;28;20066;-51
2022/01/27 04:18:05;;;;;;;27.65;16.55;;;;;;;3.04;58.73;100188.22;5071712;28;20025;-49
2022/01/27 04:20:31;;;;;;;31.75;16.15;;;;;;;3.22;58.51;100183.44;5071573;28;20572;-49
2022/01/27 04:22:57;;;;;;;29.52;15.60;;;;;;;3.31;58.12;100195.69;5071579;28;20109;-47
2022/01/27 04:25:23;;;;;;;28.08;16.13;;;;;;;3.32;57.96;100189.56;5071546;28;20024;-48
2022/01/27 04:27:53;;;;;;;33.17;18.80;;;;;;;3.36;57.77;100193.59;5071550;28;20104;-48
2022/01/27 04:30:22;;;;;;;29.08;15.85;;;;;;;3.35;57.66;100197.09;5070285;28;20143;-48
2022/01/27 04:32:53;;;;;;;30.80;17.23;;;;;;;3.26;57.50;100199.56;5071594;28;20096;-49
2022/01/27 04:35:21;;;;;;;30.10;17.38;;;;;;;3.12;57.90;100201.44;5070323;28;20029;-48
2022/01/27 04:37:59;;;;;;;29.70;17.10;;;;;;;2.96;58.32;100206.13;5071492;28;20024;-48
2022/01/27 04:40:43;;;;;;;30.80;16.05;;;;;;;2.92;58.40;100200.34;5084781;28;20044;-47
2022/01/27 04:45:47;;;;;;;25.38;13.00;;;;;;;2.67;58.16;100210.84;5091835;28;20028;-49
2022/01/27 04:48:18;;;;;;;28.55;15.25;;;;;;;2.49;58.84;100221.59;5091646;28;20024;-49
2022/01/27 04:50:44;;;;;;;31.88;16.02;;;;;;;2.53;59.24;100215.25;5091631;28;20106;-49
2022/01/27 04:53:22;;;;;;;36.95;18.17;;;;;;;2.71;59.34;100222.66;5091564;28;20099;-48
2022/01/27 04:55:47;;;;;;;46.97;31.17;;;;;;;2.90;58.85;100212.59;5091588;28;20409;-49
2022/01/27 04:58:18;;;;;;;34.47;18.25;;;;;;;2.83;58.15;100211.38;5091495;28;20025;-48
2022/01/27 05:00:44;;;;;;;31.88;17.30;;;;;;;2.63;58.71;100214.59;5091551;28;20029;-48
2022/01/27 05:03:16;;;;;;;34.50;16.75;;;;;;;2.59;59.84;100203.63;5091478;28;20557;-47
2022/01/27 05:05:42;;;;;;;31.80;14.80;;;;;;;2.54;59.39;100214.34;5091416;28;20444;-47
2022/01/27 05:08:15;;;;;;;41.25;16.48;;;;;;;2.40;59.53;100220.50;5091404;28;20021;-47
2022/01/27 05:10:41;;;;;;;30.05;16.98;;;;;;;2.31;59.77;100221.16;5091466;28;20064;-47
2022/01/27 05:13:16;;;;;;;33.70;17.85;;;;;;;2.32;60.61;100214.22;5090067;28;20051;-48
2022/01/27 05:15:44;;;;;;;38.78;17.85;;;;;;;2.44;60.47;100215.94;5091398;28;20028;-47
2022/01/27 05:18:11;;;;;;;30.92;16.90;;;;;;;2.62;60.36;100212.94;5091376;28;20078;-48
2022/01/27 05:20:37;;;;;;;34.15;16.63;;;;;;;2.59;59.84;100220.00;5092580;28;20107;-47
2022/01/27 05:23:02;;;;;;;42.15;16.17;;;;;;;2.55;60.44;100225.53;5093649;28;20115;-48
2022/01/27 05:25:28;;;;;;;32.80;16.83;;;;;;;2.69;60.62;100214.16;5094860;28;20112;-47
2022/01/27 05:27:54;;;;;;;49.15;20.35;;;;;;;2.84;60.02;100218.22;5094929;28;20016;-49
2022/01/27 05:30:20;;;;;;;34.97;18.17;;;;;;;2.74;59.86;100209.47;5094781;28;20097;-48
2022/01/27 05:32:45;;;;;;;35.80;15.00;;;;;;;2.84;60.76;100202.69;5093498;28;20103;-48
2022/01/27 05:35:11;;;;;;;36.13;18.30;;;;;;;3.12;59.82;100203.19;5094744;28;20375;-47
2022/01/27 05:37:37;;;;;;;32.67;16.92;;;;;;;3.32;59.03;100209.47;5094707;28;20016;-47
2022/01/27 05:40:03;;;;;;;32.92;17.33;;;;;;;3.36;58.99;100203.13;5094411;28;20492;-47
2022/01/27 05:42:28;;;;;;;41.33;17.70;;;;;;;3.37;59.02;100204.78;5094507;28;20417;-48
2022/01/27 05:44:54;;;;;;;34.35;17.02;;;;;;;3.35;58.90;100207.50;5094499;28;20027;-49
2022/01/27 05:47:20;;;;;;;44.15;20.02;;;;;;;3.31;58.92;100208.66;5094573;28;20051;-50
2022/01/27 05:49:46;;;;;;;35.42;18.80;;;;;;;3.37;58.83;100204.78;5094492;28;20440;-50
2022/01/27 05:52:12;;;;;;;33.92;17.70;;;;;;;3.46;59.05;100209.28;5094437;28;20034;-48
2022/01/27 05:54:37;;;;;;;40.28;18.08;;;;;;;3.54;58.22;100206.94;5094451;28;20490;-47
2022/01/27 05:57:03;;;;;;;51.67;19.48;;;;;;;3.42;58.10;100202.69;5094300;28;20028;-48
2022/01/27 05:59:29;;;;;;;29.98;16.40;;;;;;;3.23;58.60;100205.81;5094341;28;20028;-49
2022/01/27 06:01:55;;;;;;;39.28;18.92;;;;;;;3.25;58.88;100206.53;5094251;28;20089;-50
2022/01/27 06:04:21;;;;;;;31.58;16.88;;;;;;;3.35;58.37;100202.31;5094138;28;20048;-49
2022/01/27 06:06:47;;;;;;;37.10;22.95;;;;;;;3.37;58.35;100200.41;5094191;28;20058;-50
2022/01/27 06:09:12;;;;;;;33.08;17.52;;;;;;;3.31;58.01;100210.44;5092779;28;20020;-50
2022/01/27 06:11:38;;;;;;;40.08;19.65;;;;;;;3.13;58.23;100203.09;5094000;28;20485;-51
2022/01/27 06:14:04;;;;;;;34.22;16.95;;;;;;;3.14;58.70;100199.56;5094052;28;20111;-49
2022/01/27 06:16:30;;;;;;;39.38;18.02;;;;;;;3.20;58.40;100188.72;5092576;28;20024;-50
2022/01/27 06:18:56;;;;;;;30.98;16.95;;;;;;;3.29;58.68;100187.19;5093952;28;20020;-50
2022/01/27 06:21:22;;;;;;;43.70;20.15;;;;;;;3.20;58.42;100196.50;5093900;28;20054;-50
2022/01/27 06:23:48;;;;;;;33.90;16.15;;;;;;;3.06;58.64;100199.31;5093815;28;20394;-50
2022/01/27 06:26:14;;;;;;;48.55;18.48;;;;;;;3.09;58.93;100198.25;5093720;28;20032;-50
2022/01/27 06:28:40;;;;;;;39.08;18.88;;;;;;;3.17;59.27;100198.50;5093781;28;20626;-50
2022/01/27 06:31:06;;;;;;;33.20;15.65;;;;;;;3.25;58.85;100195.34;5093286;28;20043;-49
2022/01/27 06:33:31;;;;;;;34.40;19.95;;;;;;;3.33;58.33;100199.00;5092795;28;20031;-49
2022/01/27 06:35:57;;;;;;;35.55;18.08;;;;;;;3.36;58.26;100200.53;5092290;28;20024;-48
2022/01/27 06:38:23;;;;;;;51.00;21.45;;;;;;;3.39;57.92;100192.53;5093454;28;20420;-48
2022/01/27 06:40:49;;;;;;;35.00;17.45;;;;;;;3.51;58.14;100206.34;5093310;28;20052;-48
2022/01/27 06:43:15;;;;;;;33.53;15.43;;;;;;;3.54;58.21;100206.94;5093469;28;20020;-49
2022/01/27 06:45:41;;;;;;;32.22;17.13;;;;;;;3.57;57.69;100203.28;5093253;28;20398;-47
2022/01/27 06:48:07;;;;;;;27.92;15.30;;;;;;;3.63;57.95;100205.38;5093475;28;20305;-49
2022/01/27 06:50:34;;;;;;;35.25;16.92;;;;;;;3.73;57.75;100206.34;5093288;28;20071;-47
2022/01/27 06:53:00;;;;;;;40.42;16.83;;;;;;;3.87;57.21;100207.03;5093277;28;20073;-49
2022/01/27 06:55:25;;;;;;;35.60;17.55;;;;;;;3.83;57.37;100205.63;5093209;28;20028;-49
2022/01/27 06:57:51;;;;;;;35.10;17.67;;;;;;;3.76;57.37;100211.31;5093174;28;20016;-49
2022/01/27 07:00:17;;;;;;;40.58;18.30;;;;;;;3.65;57.23;100205.28;5091775;28;20032;-49
2022/01/27 07:02:43;;;;;;;35.67;17.65;;;;;;;3.52;57.68;100202.78;5091739;28;20024;-48
2022/01/27 07:05:13;;;;;;;32.05;16.95;;;;;;;3.50;58.27;100204.66;5092963;28;20032;-48
2022/01/27 07:07:39;;;;;;;38.95;18.35;;;;;;;3.57;57.84;100208.47;5091853;28;20122;-48
2022/01/27 07:10:06;;;;;;;41.95;18.70;;;;;;;3.63;57.64;100205.38;5092912;28;20157;-48
2022/01/27 07:12:31;;;;;;;42.83;18.65;;;;;;;3.48;57.47;100206.56;5091558;28;20028;-48
2022/01/27 07:14:58;;;;;;;37.10;17.70;;;;;;;3.38;57.62;100207.28;5092911;28;20027;-49
2022/01/27 07:17:24;;;;;;;34.08;18.08;;;;;;;3.31;57.73;100208.66;5092833;28;20027;-49
2022/01/27 07:19:50;;;;;;;45.25;18.00;;;;;;;3.19;58.23;100207.81;5092792;28;20027;-48
2022/01/27 07:22:16;;;;;;;39.03;19.55;;;;;;;3.22;58.31;100204.19;5092697;28;20091;-49
2022/01/27 07:24:42;;;;;;;40.67;18.90;;;;;;;3.23;58.31;100215.38;5091257;28;20028;-50
2022/01/27 07:27:08;;;;;;;34.50;16.27;;;;;;;3.24;58.26;100212.69;5091299;28;20024;-50
2022/01/27 07:29:34;;;;;;;38.85;17.85;;;;;;;3.42;58.67;100213.06;5091332;28;20031;-49
2022/01/27 07:32:00;;;;;;;38.13;17.80;;;;;;;3.62;58.17;100213.28;5092613;28;20116;-49
2022/01/27 07:34:26;;;;;;;29.00;17.38;;;;;;;3.69;57.54;100215.31;5092484;28;20063;-49
2022/01/27 07:36:56;;;;;;;42.20;20.08;;;;;;;3.55;57.59;100221.56;5092504;28;20024;-49
2022/01/27 07:39:22;;;;;;;45.28;25.13;;;;;;;3.53;58.02;100220.03;5092242;28;20044;-49
2022/01/27 07:41:48;;;;;;;35.28;20.25;;;;;;;3.45;57.29;100220.59;5092769;28;20046;-50
2022/01/27 07:44:13;;;;;;;35.60;20.60;;;;;;;2.92;57.67;100230.63;5091932;28;20401;-50
2022/01/27 07:46:39;;;;;;;36.50;16.98;;;;;;;2.62;59.29;100237.09;5092340;28;20024;-47
2022/01/27 07:49:05;;;;;;;34.38;18.27;;;;;;;2.63;59.29;100238.75;5092245;28;20070;-49
2022/01/27 07:51:31;;;;;;;47.20;20.48;;;;;;;2.69;59.05;100245.25;5092233;28;20104;-49
2022/01/27 07:53:57;;;;;;;96.13;61.53;;;;;;;2.72;59.53;100243.28;5092218;28;20048;-48
2022/01/27 07:56:22;;;;;;;51.75;22.40;;;;;;;2.90;59.92;100245.47;5092138;28;20057;-48
2022/01/27 07:58:48;;;;;;;39.45;19.02;;;;;;;3.12;59.49;100248.13;5092154;28;20079;-48
2022/01/27 08:01:14;;;;;;;49.00;19.70;;;;;;;3.24;59.24;100253.34;5090775;28;20519;-47
2022/01/27 08:03:40;;;;;;;40.83;18.48;;;;;;;3.25;58.83;100255.81;5092082;28;20027;-47
2022/01/27 08:06:07;;;;;;;37.83;18.15;;;;;;;3.09;58.74;100250.13;5091971;28;20453;-48
2022/01/27 08:08:33;;;;;;;42.78;19.77;;;;;;;3.11;58.88;100246.47;5091976;28;20161;-48
2022/01/27 08:10:59;;;;;;;323.48;243.32;;;;;;;3.13;59.02;100256.75;5090655;28;20051;-48
2022/01/27 08:13:26;;;;;;;64.85;38.95;;;;;;;3.29;59.71;100248.66;5090625;28;20114;-48
2022/01/27 08:15:53;;;;;;;136.02;99.65;;;;;;;3.58;60.10;100257.66;5091907;28;20020;-47
2022/01/27 08:18:19;;;;;;;46.33;22.30;;;;;;;3.68;59.12;100251.75;5091932;28;20024;-48
2022/01/27 08:20:47;;;;;;;35.75;18.55;;;;;;;3.72;58.10;100250.59;5091910;28;20069;-48
2022/01/27 08:23:14;;;;;;;29.52;16.15;;;;;;;3.62;57.90;100258.25;5091970;28;20035;-47
2022/01/27 08:25:42;;;;;;;39.53;16.70;;;;;;;3.67;58.05;100257.91;5091809;28;20708;-47
2022/01/27 08:28:19;;;;;;;33.97;17.25;;;;;;;3.72;57.82;100255.78;5091884;28;20107;-49
2022/01/27 08:30:49;;;;;;;35.80;15.57;;;;;;;3.80;56.91;100258.59;5091885;28;20061;-47
2022/01/27 08:33:18;;;;;;;32.60;15.68;;;;;;;3.83;56.99;100260.97;5090503;28;20050;-48
2022/01/27 08:35:44;;;;;;;29.45;15.13;;;;;;;3.86;56.19;100265.09;5091796;28;20070;-47
2022/01/27 08:38:09;;;;;;;30.45;14.40;;;;;;;3.91;56.47;100257.81;5091688;28;20028;-48
2022/01/27 08:40:36;;;;;;;28.33;13.98;;;;;;;4.02;56.08;100260.38;5091396;28;20486;-47
2022/01/27 08:43:03;;;;;;;27.27;14.98;;;;;;;4.05;55.71;100259.34;5091674;28;20053;-49
2022/01/27 08:45:29;;;;;;;28.70;15.52;;;;;;;3.83;55.40;100260.97;5091503;28;20085;-48
2022/01/27 08:47:58;;;;;;;34.72;16.08;;;;;;;3.64;56.20;100264.13;5091571;28;20024;-48
2022/01/27 08:50:24;;;;;;;29.63;16.58;;;;;;;3.75;56.27;100266.75;5090298;28;20031;-47
2022/01/27 08:52:51;;;;;;;197.38;162.52;;;;;;;3.79;55.98;100262.16;5091609;28;20017;-47
2022/01/27 08:55:17;;;;;;;210.63;177.18;;;;;;;3.93;55.83;100266.31;5092324;28;20103;-49
2022/01/27 08:57:43;;;;;;;40.80;27.85;;;;;;;4.09;55.32;100269.34;5095795;28;20095;-48
2022/01/27 09:00:12;;;;;;;31.17;15.85;;;;;;;4.09;55.01;100268.53;5095497;28;20512;-48
2022/01/27 09:02:38;;;;;;;29.80;14.68;;;;;;;4.05;55.19;100272.31;5095481;28;20024;-47
2022/01/27 09:05:04;;;;;;;26.00;14.70;;;;;;;3.97;55.14;100280.69;5095312;28;20027;-47
2022/01/27 09:07:30;;;;;;;33.50;19.08;;;;;;;4.04;55.17;100287.06;5095281;28;20087;-47
2022/01/27 09:09:56;;;;;;;30.52;14.50;;;;;;;4.02;54.77;100288.94;5093991;28;20027;-47
2022/01/27 09:12:22;;;;;;;28.45;14.45;;;;;;;4.05;55.25;100288.72;5095161;28;20494;-47
2022/01/27 09:14:48;;;;;;;37.47;16.55;;;;;;;4.09;54.42;100284.94;5095184;28;20124;-48
2022/01/27 09:17:15;;;;;;;36.40;18.08;;;;;;;3.95;54.76;100286.00;5095188;28;20023;-47
2022/01/27 09:19:45;;;;;;;36.65;17.77;;;;;;;3.94;54.87;100283.53;5093774;28;20032;-48
2022/01/27 09:22:14;;;;;;;38.05;21.40;;;;;;;3.89;54.46;100283.88;5093695;28;20047;-49
2022/01/27 09:24:57;;;;;;;36.88;16.63;;;;;;;3.76;54.56;100294.41;5094908;28;20030;-47
2022/01/27 09:27:24;;;;;;;34.08;16.80;;;;;;;3.69;55.24;100300.97;5094960;28;20481;-47
2022/01/27 09:29:50;;;;;;;37.58;17.88;;;;;;;3.74;54.78;100298.03;5094927;28;20055;-47
2022/01/27 09:32:17;;;;;;;34.20;16.05;;;;;;;3.70;55.49;100296.59;5094877;28;20489;-48
2022/01/27 09:34:44;;;;;;;31.67;15.30;;;;;;;3.65;55.78;100294.38;5093498;28;20035;-46
2022/01/27 09:37:10;;;;;;;41.22;16.50;;;;;;;3.74;55.71;100300.63;5094806;28;20397;-48
2022/01/27 09:39:36;;;;;;;42.63;17.17;;;;;;;3.76;55.81;100304.78;5094702;28;20445;-47
2022/01/27 09:42:05;;;;;;;51.55;19.88;;;;;;;3.69;55.80;100303.56;5094717;28;20031;-47
2022/01/27 09:44:32;;;;;;;50.88;18.63;;;;;;;3.87;55.90;100306.56;5094491;28;20116;-48
2022/01/27 09:47:02;;;;;;;33.83;14.77;;;;;;;4.02;55.41;100301.94;5093295;28;20514;-47
2022/01/27 09:49:39;;;;;;;38.63;16.35;;;;;;;4.06;55.38;100307.72;5093252;28;20568;-48
2022/01/27 09:52:06;;;;;;;37.25;20.20;;;;;;;4.00;55.23;100311.63;5094576;28;20442;-50
2022/01/27 09:54:33;;;;;;;67.18;46.75;;;;;;;3.90;55.39;100300.28;5093079;28;20093;-50
2022/01/27 09:57:00;;;;;;;50.97;19.75;;;;;;;3.83;55.68;100315.53;5094364;28;20024;-47
2022/01/27 09:59:27;;;;;;;43.53;19.95;;;;;;;3.93;55.82;100316.47;5094323;28;20042;-48
2022/01/27 10:02:04;;;;;;;44.58;20.40;;;;;;;3.66;55.21;100321.16;5094320;28;20440;-48
2022/01/27 10:04:48;;;;;;;35.22;17.00;;;;;;;3.33;56.35;100317.53;5094242;28;20436;-48
2022/01/27 10:07:26;;;;;;;32.33;19.23;;;;;;;3.35;56.67;100316.47;5092546;28;20061;-49
2022/01/27 10:09:55;;;;;;;32.22;15.93;;;;;;;3.47;57.00;100313.94;5094193;28;20024;-50
2022/01/27 10:12:49;;;;;;;34.78;17.77;;;;;;;3.68;56.95;100320.13;5092785;28;20114;-50
2022/01/27 10:15:21;;;;;;;102.10;74.57;;;;;;;3.78;56.23;100321.06;5087978;28;20048;-49
2022/01/27 10:18:14;;;;;;;48.45;22.85;;;;;;;3.78;56.30;100328.00;5094105;28;20024;-50
2022/01/27 10:20:59;;;;;;;31.17;18.20;;;;;;;3.97;55.96;100322.25;5093942;28;20123;-47
2022/01/27 10:23:33;;;;;;;37.63;17.40;;;;;;;3.99;55.59;100317.78;5092639;28;20023;-48
2022/01/27 10:26:14;;;;;;;33.05;16.83;;;;;;;4.03;55.59;100310.59;5093779;28;20109;-48
2022/01/27 10:28:47;;;;;;;40.78;22.05;;;;;;;3.97;55.55;100317.88;5093895;28;20103;-48
2022/01/27 10:31:23;;;;;;;33.30;19.52;;;;;;;4.12;55.91;100325.44;5093748;28;20024;-48
2022/01/27 10:34:01;;;;;;;38.28;17.75;;;;;;;4.01;55.34;100323.69;5093718;28;20070;-47
2022/01/27 10:36:30;;;;;;;45.33;18.45;;;;;;;3.87;55.91;100316.13;5093636;28;20027;-48
2022/01/27 10:39:02;;;;;;;34.05;17.02;;;;;;;3.84;56.22;100317.16;5093332;28;20101;-47
2022/01/27 10:41:34;;;;;;;32.30;17.58;;;;;;;4.04;56.29;100313.03;5092179;28;20549;-48
2022/01/27 10:44:17;;;;;;;30.30;15.65;;;;;;;4.16;55.73;100317.28;5093556;28;20028;-48
2022/01/27 10:47:02;;;;;;;36.95;18.35;;;;;;;4.23;55.56;100309.03;5093469;28;20070;-47
2022/01/27 10:49:35;;;;;;;33.88;18.15;;;;;;;4.46;55.35;100309.84;5092132;28;20039;-49
2022/01/27 10:52:01;;;;;;;26.45;15.82;;;;;;;4.76;54.84;100311.78;5093367;28;20069;-48
2022/01/27 10:54:49;;;;;;;36.42;18.42;;;;;;;4.97;54.24;100301.41;5093315;28;20394;-48
2022/01/27 10:57:16;;;;;;;35.65;17.95;;;;;;;5.18;53.57;100306.66;5093224;28;20016;-47
2022/01/27 10:59:43;;;;;;;37.95;18.92;;;;;;;5.14;53.02;100300.06;5093254;28;20562;-48
2022/01/27 11:02:11;;;;;;;34.08;16.25;;;;;;;5.08;53.60;100297.94;5093091;28;20371;-48
2022/01/27 11:04:40;;;;;;;34.05;16.13;;;;;;;5.04;52.63;100302.56;5093067;28;20069;-49
2022/01/27 11:07:10;;;;;;;29.20;16.08;;;;;;;4.84;52.75;100296.38;5091706;28;20020;-47
2022/01/27 11:09:40;;;;;;;29.90;15.10;;;;;;;4.79;53.63;100293.34;5093032;28;20028;-48
2022/01/27 11:12:11;;;;;;;25.45;14.98;;;;;;;4.86;53.13;100293.66;5092959;28;20015;-48
2022/01/27 11:14:37;;;;;;;26.58;14.95;;;;;;;4.82;53.04;100302.66;5092995;28;20028;-48
2022/01/27 11:17:11;;;;;;;25.58;15.50;;;;;;;4.76;53.43;100291.78;5091548;28;20024;-47
2022/01/27 11:27:38;;;;;;;27.05;15.05;;;;;;;4.39;53.39;100286.91;5072677;28;20059;-48
2022/01/27 11:30:51;;;;;;;24.52;13.15;;;;;;;4.38;53.83;100287.03;5091338;28;20028;-47
2022/01/27 11:33:18;;;;;;;30.23;13.52;;;;;;;4.59;53.70;100284.53;5082179;28;20493;-48
2022/01/27 11:35:44;;;;;;;27.15;14.90;;;;;;;4.86;53.63;100273.66;5092557;28;20024;-47
2022/01/27 11:38:11;;;;;;;25.50;13.98;;;;;;;4.93;52.90;100282.66;5092435;28;20031;-48
2022/01/27 11:40:44;;;;;;;27.35;15.20;;;;;;;4.90;52.74;100280.28;5092268;28;20043;-48
2022/01/27 11:43:33;;;;;;;24.23;13.98;;;;;;;5.09;52.24;100281.38;5092375;28;20024;-48
2022/01/27 11:46:22;;;;;;;20.63;13.60;;;;;;;5.20;51.69;100270.91;5091022;28;20470;-49
2022/01/27 11:48:48;;;;;;;22.20;13.27;;;;;;;5.18;51.35;100270.22;5092412;28;20056;-49
2022/01/27 11:51:15;;;;;;;25.48;13.85;;;;;;;5.18;51.35;100271.03;5090928;28;20056;-47
2022/01/27 11:53:43;;;;;;;25.35;14.05;;;;;;;5.39;51.56;100271.06;5090970;28;20027;-48
2022/01/27 11:56:15;;;;;;;26.75;14.55;;;;;;;5.66;51.64;100271.47;5090781;28;20444;-48
2022/01/27 11:58:47;;;;;;;24.50;13.80;;;;;;;5.78;50.79;100265.22;5092226;28;20444;-48
2022/01/27 12:01:21;;;;;;;24.80;14.00;;;;;;;5.71;50.34;100259.69;5090856;28;20028;-49
2022/01/27 12:04:07;;;;;;;23.45;13.88;;;;;;;5.47;50.17;100256.56;5092462;28;20020;-48
2022/01/27 12:06:48;;;;;;;22.17;12.95;;;;;;;5.28;51.24;100258.09;5092063;28;20042;-49
2022/01/27 12:09:17;;;;;;;23.98;15.10;;;;;;;5.24;51.12;100261.09;5091993;28;20020;-47
2022/01/27 12:11:59;;;;;;;41.88;31.10;;;;;;;5.18;51.18;100258.03;5092007;28;20417;-48
2022/01/27 12:14:34;;;;;;;29.20;15.95;;;;;;;5.18;51.40;100252.81;5090702;28;20367;-48
2022/01/27 12:17:09;;;;;;;24.58;14.15;;;;;;;5.03;51.23;100250.66;5091909;28;20022;-48